createdAt,value
2018-07-23T00:00:16.156Z,18.86
2018-07-23T00:05:19.846Z,19.60
2018-07-23T00:10:24.132Z,16.40
2018-07-23T00:15:28.478Z,22.00
2018-07-23T00:20:32.734Z,18.50
2018-07-23T00:25:37.039Z,18.75
2018-07-23T00:30:41.332Z,17.60
2018-07-23T00:35:45.724Z,18.75
2018-07-23T00:40:49.850Z,16.00
2018-07-23T00:45:53.887Z,17.00
2018-07-23T00:50:58.025Z,17.80
2018-07-23T00:56:02.080Z,19.20
2018-07-23T01:01:06.365Z,21.00
2018-07-23T01:06:10.309Z,20.25
2018-07-23T01:11:14.599Z,17.75
2018-07-23T01:16:18.552Z,19.00
2018-07-23T01:21:22.568Z,18.50
2018-07-23T01:26:27.072Z,17.50
2018-07-23T01:31:31.752Z,21.20
2018-07-23T01:36:35.874Z,18.50
2018-07-23T01:41:40.266Z,17.80
2018-07-23T01:46:44.091Z,18.20
2018-07-23T01:51:48.090Z,20.00
2018-07-23T01:56:51.909Z,18.80
2018-07-23T02:01:57.607Z,19.20
2018-07-23T02:07:01.649Z,24.00
2018-07-23T02:12:06.411Z,19.00
2018-07-23T02:17:10.948Z,18.00
2018-07-23T02:22:15.471Z,20.40
2018-07-23T02:27:19.688Z,21.25
2018-07-23T02:32:23.424Z,20.75
2018-07-23T02:37:27.268Z,20.00
2018-07-23T02:42:31.311Z,21.00
2018-07-23T02:47:35.055Z,20.60
2018-07-23T02:52:38.967Z,23.00
2018-07-23T02:57:42.816Z,19.50
2018-07-23T03:02:46.808Z,20.00
2018-07-23T03:07:50.732Z,24.25
2018-07-23T03:12:55.429Z,26.75
2018-07-23T03:17:59.328Z,27.80
2018-07-23T03:23:03.348Z,28.00
2018-07-23T03:28:07.340Z,30.25
2018-07-23T03:33:11.314Z,28.50
2018-07-23T03:38:15.149Z,29.00
2018-07-23T03:43:19.070Z,23.40
2018-07-23T03:48:22.838Z,26.60
2018-07-23T03:53:26.617Z,25.25
2018-07-23T03:58:30.295Z,27.50
2018-07-23T04:03:33.903Z,30.20
2018-07-23T04:08:38.017Z,37.25
2018-07-23T04:13:41.863Z,40.25
2018-07-23T04:18:45.623Z,42.40
2018-07-23T04:23:49.568Z,45.50
2018-07-23T04:28:53.370Z,42.50
2018-07-23T04:33:57.105Z,47.75
2018-07-23T04:39:00.993Z,49.80
2018-07-23T04:44:04.756Z,51.00
2018-07-23T04:49:08.634Z,48.00
2018-07-23T04:54:12.463Z,50.80
2018-07-23T04:59:16.982Z,47.00
2018-07-23T05:04:20.723Z,50.00
2018-07-23T05:09:24.650Z,50.75
2018-07-23T05:14:28.540Z,50.00
2018-07-23T05:19:32.734Z,49.60
2018-07-23T05:24:36.614Z,53.50
2018-07-23T05:29:40.409Z,51.50
2018-07-23T05:34:44.234Z,52.60
2018-07-23T05:39:48.075Z,48.60
2018-07-23T05:44:51.842Z,55.20
2018-07-23T05:49:55.644Z,49.25
2018-07-23T05:54:59.415Z,50.60
2018-07-23T06:00:06.469Z,47.80
2018-07-23T06:05:10.262Z,47.80
2018-07-23T06:19:48.062Z,46.80
2018-07-23T06:24:51.745Z,46.50
2018-07-23T06:29:55.460Z,42.75
2018-07-23T06:34:59.150Z,47.00
2018-07-23T06:40:06.979Z,46.00
2018-07-23T06:45:10.707Z,33.60
2018-07-23T06:50:14.411Z,36.60
2018-07-23T06:55:18.180Z,37.20
2018-07-23T07:00:21.942Z,39.75
2018-07-23T07:05:26.607Z,30.80
2018-07-23T07:10:30.433Z,26.50
2018-07-23T07:15:34.260Z,26.50
2018-07-23T07:20:38.922Z,21.75
2018-07-23T07:25:43.087Z,19.50
2018-07-23T07:30:46.817Z,18.80
2018-07-23T07:35:50.494Z,18.75
2018-07-23T07:41:00.786Z,14.25
2018-07-23T07:46:05.638Z,17.00
2018-07-23T07:51:09.409Z,17.00
2018-07-23T07:56:13.131Z,15.75
2018-07-23T08:01:16.887Z,16.40
2018-07-23T08:06:20.570Z,15.50
2018-07-23T08:11:24.274Z,21.50
2018-07-23T08:16:27.975Z,19.60
2018-07-23T08:21:31.713Z,18.00
2018-07-23T08:26:35.345Z,17.75
2018-07-23T08:31:39.131Z,19.00
2018-07-23T08:36:42.831Z,16.60
2018-07-23T08:41:46.600Z,17.00
2018-07-23T08:46:50.361Z,17.50
2018-07-23T08:51:54.147Z,17.00
2018-07-23T08:56:57.783Z,18.60
2018-07-23T09:02:01.438Z,19.50
2018-07-23T09:07:05.183Z,17.25
2018-07-23T09:12:09.466Z,20.40
2018-07-23T09:17:13.236Z,18.50
2018-07-23T09:22:16.889Z,14.00
2018-07-23T09:27:20.526Z,18.00
2018-07-23T09:32:24.190Z,19.25
2018-07-23T09:37:28.158Z,20.40
2018-07-23T09:42:32.002Z,17.40
2018-07-23T09:47:35.786Z,14.60
2018-07-23T09:52:39.531Z,16.75
2018-07-23T09:57:43.273Z,14.50
2018-07-23T10:02:46.974Z,15.00
2018-07-23T10:07:50.652Z,14.75
2018-07-23T10:12:54.462Z,18.50
2018-07-23T10:17:58.122Z,14.25
2018-07-23T10:23:01.778Z,15.40
2018-07-23T10:28:05.747Z,17.00
2018-07-23T10:33:09.415Z,17.25
2018-07-23T10:38:13.459Z,12.00
2018-07-23T10:43:17.185Z,14.50
2018-07-23T10:48:20.847Z,14.00
2018-07-23T10:53:24.922Z,12.50
2018-07-23T10:58:30.305Z,13.25
2018-07-23T11:03:34.075Z,16.00
2018-07-23T11:08:37.758Z,13.00
2018-07-23T11:13:41.511Z,11.75
2018-07-23T11:18:45.223Z,15.00
2018-07-23T11:23:48.950Z,11.20
2018-07-23T11:28:52.651Z,14.75
2018-07-23T11:33:56.424Z,14.00
2018-07-23T11:39:00.142Z,12.80
2018-07-23T11:44:04.157Z,13.00
2018-07-23T11:49:07.944Z,16.00
2018-07-23T11:54:11.878Z,12.50
2018-07-23T11:59:15.503Z,13.00
2018-07-23T12:04:19.227Z,12.20
2018-07-23T12:09:22.813Z,13.00
2018-07-23T12:14:26.435Z,12.75
2018-07-23T12:19:30.229Z,13.80
2018-07-23T12:24:33.918Z,11.20
2018-07-23T12:29:37.564Z,12.75
2018-07-23T12:34:42.212Z,13.40
2018-07-23T12:39:45.999Z,14.20
2018-07-23T12:44:49.717Z,15.50
2018-07-23T12:49:53.415Z,12.75
2018-07-23T12:54:57.166Z,11.20
2018-07-23T13:00:02.105Z,14.60
2018-07-23T13:05:07.209Z,11.60
2018-07-23T13:10:10.869Z,11.80
2018-07-23T13:15:14.613Z,12.80
2018-07-23T13:20:18.339Z,14.25
2018-07-23T13:25:22.037Z,14.60
2018-07-23T13:30:25.830Z,14.80
2018-07-23T13:35:29.599Z,11.80
2018-07-23T13:40:33.268Z,10.00
2018-07-23T13:45:37.017Z,13.80
2018-07-23T13:50:40.782Z,12.20
2018-07-23T13:55:44.482Z,11.50
2018-07-23T14:00:48.297Z,11.75
2018-07-23T14:05:51.974Z,10.00
2018-07-23T14:10:55.758Z,14.00
2018-07-23T14:15:59.418Z,11.80
2018-07-23T14:21:03.091Z,11.00
2018-07-23T14:26:06.807Z,13.00
2018-07-23T14:31:10.507Z,11.75
2018-07-23T14:36:14.645Z,10.75
2018-07-23T14:41:18.514Z,11.00
2018-07-23T14:46:22.547Z,11.00
2018-07-23T14:51:26.303Z,12.50
2018-07-23T14:56:30.333Z,9.25
2018-07-23T15:01:34.503Z,8.60
2018-07-23T15:06:38.234Z,11.50
2018-07-23T15:11:41.977Z,11.80
2018-07-23T15:16:45.601Z,12.20
2018-07-23T15:21:49.359Z,9.25
2018-07-23T15:26:53.183Z,10.40
2018-07-23T15:31:56.954Z,9.60
2018-07-23T15:37:00.718Z,11.00
2018-07-23T15:42:04.475Z,16.00
2018-07-23T15:47:08.667Z,13.60
2018-07-23T15:52:12.516Z,11.50
2018-07-23T15:57:16.186Z,14.25
2018-07-23T16:02:19.810Z,17.25
2018-07-23T16:07:23.561Z,13.75
2018-07-23T16:12:27.226Z,15.75
2018-07-23T16:17:30.916Z,16.50
2018-07-23T16:22:34.812Z,14.50
2018-07-23T16:27:38.628Z,15.50
2018-07-23T16:32:42.493Z,15.25
2018-07-23T16:37:46.311Z,14.80
2018-07-23T16:42:50.010Z,13.20
2018-07-23T16:47:53.864Z,17.20
2018-07-23T16:52:57.611Z,15.75
2018-07-23T16:58:01.482Z,17.25
2018-07-23T17:03:05.146Z,14.00
2018-07-23T17:08:08.942Z,14.40
2018-07-23T17:13:12.861Z,13.00
2018-07-23T17:18:16.730Z,14.40
2018-07-23T17:23:20.575Z,12.75
2018-07-23T17:28:24.301Z,13.60
2018-07-23T17:33:28.004Z,15.00
2018-07-23T17:38:31.711Z,10.80
2018-07-23T17:43:39.986Z,11.20
2018-07-23T17:48:43.713Z,11.25
2018-07-23T17:53:47.533Z,14.50
2018-07-23T17:58:51.987Z,11.25
2018-07-23T18:03:56.128Z,11.75
2018-07-23T18:09:01.249Z,10.80
2018-07-23T18:14:05.346Z,13.00
2018-07-23T18:19:09.089Z,12.80
2018-07-23T18:24:12.757Z,12.50
2018-07-23T18:29:16.582Z,12.00
2018-07-23T18:34:20.246Z,11.00
2018-07-23T18:39:23.882Z,14.40
2018-07-23T18:44:27.569Z,10.75
2018-07-23T18:49:43.515Z,9.80
2018-07-23T18:54:48.583Z,10.80
2018-07-23T18:59:52.302Z,14.60
2018-07-23T19:04:56.054Z,12.20
2018-07-23T19:09:59.771Z,9.40
2018-07-23T19:15:05.775Z,12.25
2018-07-23T19:20:09.474Z,12.80
2018-07-23T19:25:13.184Z,14.00
2018-07-23T19:30:16.920Z,14.80
2018-07-23T19:35:20.644Z,14.40
2018-07-23T19:40:24.595Z,16.40
2018-07-23T19:45:28.300Z,14.40
2018-07-23T19:50:31.993Z,14.20
2018-07-23T19:55:35.687Z,12.40
2018-07-23T20:00:39.389Z,12.50
2018-07-23T20:05:43.065Z,15.40
2018-07-23T20:10:46.759Z,15.80
2018-07-23T20:15:50.448Z,16.00
2018-07-23T20:20:54.193Z,12.25
2018-07-23T20:25:57.849Z,12.80
2018-07-23T20:31:01.506Z,13.00
2018-07-23T20:36:05.652Z,15.00
2018-07-23T20:41:09.361Z,13.50
2018-07-23T20:46:12.994Z,12.40
2018-07-23T20:51:16.722Z,15.60
2018-07-23T20:56:20.527Z,15.50
2018-07-23T21:01:24.339Z,13.75
2018-07-23T21:06:28.491Z,13.25
2018-07-23T21:11:32.425Z,15.20
2018-07-23T21:16:36.255Z,13.00
2018-07-23T21:21:39.931Z,14.00
2018-07-23T21:26:43.603Z,16.80
2018-07-23T21:31:47.318Z,15.75
2018-07-23T21:36:51.541Z,15.50
2018-07-23T21:41:55.279Z,15.25
2018-07-23T21:46:59.577Z,15.60
2018-07-23T21:52:03.681Z,14.50
2018-07-23T21:57:07.892Z,13.50
2018-07-23T22:02:11.878Z,15.75
2018-07-23T22:07:15.590Z,16.00
2018-07-23T22:12:19.273Z,15.75
2018-07-23T22:17:22.999Z,17.00
2018-07-23T22:22:26.734Z,15.60
2018-07-23T22:27:30.454Z,18.75
2018-07-23T22:32:34.110Z,18.50
2018-07-23T22:37:37.723Z,17.00
2018-07-23T22:42:41.398Z,15.00
2018-07-23T22:47:45.065Z,18.00
2018-07-23T22:52:48.860Z,15.00
2018-07-23T22:57:52.534Z,15.00
2018-07-23T23:02:56.207Z,14.80
2018-07-23T23:07:59.996Z,17.50
2018-07-23T23:13:03.707Z,17.40
2018-07-23T23:18:07.479Z,17.25
2018-07-23T23:23:11.329Z,16.25
2018-07-23T23:28:15.044Z,14.40
2018-07-23T23:33:18.746Z,17.00
2018-07-23T23:38:22.351Z,16.00
2018-07-23T23:43:26.083Z,15.60
2018-07-23T23:48:29.826Z,15.50
2018-07-23T23:53:33.470Z,16.25
2018-07-23T23:58:37.218Z,17.25
